createdAt,value
2018-12-15T00:00:27.310Z,7.20
2018-12-15T00:02:54.800Z,7.15
2018-12-15T00:05:22.276Z,6.87
2018-12-15T00:07:50.686Z,7.22
2018-12-15T00:10:18.153Z,7.72
2018-12-15T00:12:45.597Z,6.80
2018-12-15T00:15:13.067Z,7.25
2018-12-15T00:17:41.557Z,5.58
2018-12-15T00:20:09.085Z,6.62
2018-12-15T00:22:36.536Z,5.95
2018-12-15T00:25:04.336Z,6.53
2018-12-15T00:27:31.808Z,6.92
2018-12-15T00:29:59.282Z,6.58
2018-12-15T00:32:26.742Z,7.08
2018-12-15T00:34:54.221Z,7.00
2018-12-15T00:37:21.689Z,6.37
2018-12-15T00:39:49.145Z,7.30
2018-12-15T00:42:16.629Z,7.17
2018-12-15T00:44:44.066Z,7.90
2018-12-15T00:47:13.925Z,6.70
2018-12-15T00:49:41.017Z,6.78
2018-12-15T00:52:08.481Z,5.67
2018-12-15T00:54:35.929Z,7.10
2018-12-15T00:57:03.466Z,7.12
2018-12-15T00:59:30.916Z,6.83
2018-12-15T01:01:58.396Z,6.10
2018-12-15T01:04:25.853Z,7.35
2018-12-15T01:06:53.308Z,7.78
2018-12-15T01:09:20.769Z,7.58
2018-12-15T01:11:48.240Z,6.70
2018-12-15T01:14:15.761Z,7.90
2018-12-15T01:16:43.221Z,8.70
2018-12-15T01:19:10.701Z,7.58
2018-12-15T01:21:38.160Z,6.70
2018-12-15T01:24:05.643Z,8.68
2018-12-15T01:26:33.111Z,7.20
2018-12-15T01:29:00.579Z,7.08
2018-12-15T01:31:28.036Z,7.17
2018-12-15T01:33:55.803Z,6.60
2018-12-15T01:36:23.277Z,7.50
2018-12-15T01:38:50.767Z,9.15
2018-12-15T01:41:18.231Z,7.65
2018-12-15T01:43:45.692Z,6.30
2018-12-15T01:46:13.241Z,7.15
2018-12-15T01:48:40.716Z,8.05
2018-12-15T01:51:08.161Z,6.45
2018-12-15T01:53:35.628Z,7.03
2018-12-15T01:56:03.081Z,8.58
2018-12-15T01:58:30.536Z,7.35
2018-12-15T02:00:57.989Z,8.23
2018-12-15T02:03:25.527Z,7.83
2018-12-15T02:05:53.028Z,8.03
2018-12-15T02:08:20.465Z,6.75
2018-12-15T02:10:47.928Z,6.92
2018-12-15T02:13:15.381Z,7.53
2018-12-15T02:15:43.032Z,6.78
2018-12-15T02:18:10.496Z,7.90
2018-12-15T02:20:37.956Z,7.83
2018-12-15T02:23:05.409Z,9.40
2018-12-15T02:25:32.880Z,7.90
2018-12-15T02:28:00.330Z,7.15
2018-12-15T02:30:27.871Z,7.95
2018-12-15T02:32:55.355Z,8.90
2018-12-15T02:35:22.830Z,7.50
2018-12-15T02:37:50.268Z,7.00
2018-12-15T02:40:17.728Z,7.97
2018-12-15T02:42:45.180Z,8.60
2018-12-15T02:45:12.648Z,7.72
2018-12-15T02:47:41.837Z,9.28
2018-12-15T02:50:09.583Z,8.88
2018-12-15T02:52:37.036Z,8.30
2018-12-15T02:55:04.579Z,8.95
2018-12-15T02:57:32.041Z,7.22
2018-12-15T02:59:59.491Z,8.25
2018-12-15T03:02:26.973Z,8.13
2018-12-15T03:04:54.425Z,7.80
2018-12-15T03:07:21.888Z,7.30
2018-12-15T03:09:49.345Z,8.18
2018-12-15T03:12:16.912Z,7.92
2018-12-15T03:14:44.365Z,8.60
2018-12-15T03:17:11.833Z,9.80
2018-12-15T03:19:40.038Z,8.35
2018-12-15T03:22:08.449Z,7.55
2018-12-15T03:24:35.905Z,9.30
2018-12-15T03:27:03.368Z,7.25
2018-12-15T03:29:30.926Z,9.05
2018-12-15T03:31:58.469Z,8.03
2018-12-15T03:34:25.937Z,8.38
2018-12-15T03:36:53.457Z,7.42
2018-12-15T03:39:20.975Z,7.33
2018-12-15T03:41:48.636Z,7.95
2018-12-15T03:44:16.094Z,8.08
2018-12-15T03:46:43.564Z,7.17
2018-12-15T03:49:11.073Z,7.03
2018-12-15T03:51:38.517Z,7.37
2018-12-15T03:54:05.991Z,7.83
2018-12-15T03:56:33.467Z,8.35
2018-12-15T03:59:00.942Z,8.78
2018-12-15T04:01:28.416Z,8.85
2018-12-15T04:03:55.879Z,8.08
2018-12-15T04:06:23.325Z,7.30
2018-12-15T04:08:50.789Z,6.30
2018-12-15T04:11:18.266Z,7.22
2018-12-15T04:13:45.705Z,7.00
2018-12-15T04:16:13.170Z,8.15
2018-12-15T04:18:40.640Z,7.45
2018-12-15T04:21:08.097Z,8.75
2018-12-15T04:23:35.560Z,8.40
2018-12-15T04:26:03.049Z,7.08
2018-12-15T04:28:30.507Z,8.23
2018-12-15T04:30:58.015Z,7.55
2018-12-15T04:33:25.510Z,5.90
2018-12-15T04:35:52.969Z,7.30
2018-12-15T04:38:20.437Z,8.20
2018-12-15T04:40:47.897Z,7.75
2018-12-15T04:43:19.664Z,7.58
2018-12-15T04:45:47.136Z,6.75
2018-12-15T04:48:14.658Z,7.50
2018-12-15T04:50:42.128Z,6.33
2018-12-15T04:53:09.604Z,7.62
2018-12-15T04:55:37.069Z,6.85
2018-12-15T04:58:04.538Z,7.65
2018-12-15T05:00:31.985Z,6.83
2018-12-15T05:02:59.448Z,7.25
2018-12-15T05:05:26.896Z,7.17
2018-12-15T05:07:54.361Z,5.95
2018-12-15T05:10:21.809Z,6.55
2018-12-15T05:12:49.276Z,7.58
2018-12-15T05:15:16.729Z,7.37
2018-12-15T05:17:44.193Z,6.70
2018-12-15T05:20:12.028Z,7.28
2018-12-15T05:22:39.721Z,6.20
2018-12-15T05:25:07.539Z,7.28
2018-12-15T05:27:35.012Z,6.20
2018-12-15T05:30:02.464Z,8.00
2018-12-15T05:32:29.941Z,6.58
2018-12-15T05:34:57.420Z,7.37
2018-12-15T05:37:24.885Z,6.80
2018-12-15T05:39:52.328Z,6.97
2018-12-15T05:42:19.792Z,8.48
2018-12-15T05:44:47.276Z,6.25
2018-12-15T05:47:15.149Z,8.28
2018-12-15T05:49:42.605Z,8.00
2018-12-15T05:52:10.078Z,7.12
2018-12-15T05:54:37.545Z,6.05
2018-12-15T05:57:07.592Z,5.92
2018-12-15T05:59:35.049Z,7.95
2018-12-15T06:02:03.806Z,5.85
2018-12-15T06:04:31.368Z,7.87
2018-12-15T06:06:58.837Z,7.35
2018-12-15T06:09:26.305Z,6.85
2018-12-15T06:11:53.764Z,8.05
2018-12-15T06:14:21.220Z,8.28
2018-12-15T06:16:48.688Z,7.15
2018-12-15T06:19:16.143Z,6.25
2018-12-15T06:21:43.608Z,7.00
2018-12-15T06:24:11.071Z,8.20
2018-12-15T06:26:38.535Z,6.05
2018-12-15T06:29:06.017Z,6.33
2018-12-15T06:31:33.471Z,6.55
2018-12-15T06:34:00.952Z,8.20
2018-12-15T06:36:28.413Z,7.00
2018-12-15T06:38:56.232Z,6.92
2018-12-15T06:41:23.672Z,6.65
2018-12-15T06:43:51.139Z,6.87
2018-12-15T06:46:18.629Z,6.15
2018-12-15T06:48:46.092Z,6.95
2018-12-15T06:51:13.588Z,9.13
2018-12-15T06:53:41.081Z,7.15
2018-12-15T06:56:08.531Z,6.80
2018-12-15T06:58:36.000Z,6.70
2018-12-15T07:01:03.496Z,6.95
2018-12-15T07:03:30.972Z,6.00
2018-12-15T07:05:58.429Z,6.85
2018-12-15T07:08:25.887Z,6.50
2018-12-15T07:10:53.457Z,7.10
2018-12-15T07:13:20.929Z,6.97
2018-12-15T07:15:48.402Z,6.35
2018-12-15T07:18:15.861Z,6.92
2018-12-15T07:20:43.318Z,6.62
2018-12-15T07:23:10.852Z,7.58
2018-12-15T07:25:38.305Z,5.42
2018-12-15T07:28:05.861Z,6.65
2018-12-15T07:30:33.866Z,6.62
2018-12-15T07:33:01.352Z,6.33
2018-12-15T07:35:28.891Z,6.22
2018-12-15T07:37:56.350Z,6.22
2018-12-15T07:40:23.821Z,6.47
2018-12-15T07:42:51.286Z,5.65
2018-12-15T07:45:18.748Z,7.95
2018-12-15T07:47:46.209Z,6.25
2018-12-15T07:50:13.672Z,5.28
2018-12-15T07:52:41.141Z,5.80
2018-12-15T07:55:08.601Z,6.20
2018-12-15T07:57:36.052Z,6.62
2018-12-15T08:00:05.560Z,7.03
2018-12-15T08:02:33.046Z,6.90
2018-12-15T08:05:00.524Z,6.17
2018-12-15T08:07:28.153Z,5.87
2018-12-15T08:09:57.592Z,6.35
2018-12-15T08:12:30.875Z,5.70
2018-12-15T08:14:58.331Z,5.55
2018-12-15T08:17:25.800Z,6.17
2018-12-15T08:19:53.272Z,4.70
2018-12-15T08:22:26.122Z,6.22
2018-12-15T08:24:51.136Z,6.28
2018-12-15T08:27:18.597Z,5.55
2018-12-15T08:29:49.697Z,5.70
2018-12-15T08:32:17.149Z,5.85
2018-12-15T08:34:44.610Z,5.85
2018-12-15T08:37:12.069Z,6.67
2018-12-15T08:39:39.554Z,6.90
2018-12-15T08:42:06.998Z,5.65
2018-12-15T08:44:34.494Z,7.60
2018-12-15T08:47:01.961Z,7.20
2018-12-15T08:49:29.425Z,7.62
2018-12-15T08:52:00.614Z,6.33
2018-12-15T08:54:28.149Z,6.08
2018-12-15T08:56:55.608Z,6.40
2018-12-15T08:59:25.081Z,5.67
2018-12-15T09:01:58.916Z,4.92
2018-12-15T09:04:26.376Z,5.35
2018-12-15T09:06:57.225Z,6.22
2018-12-15T09:09:24.694Z,6.15
2018-12-15T09:11:52.152Z,5.87
2018-12-15T09:14:19.689Z,6.50
2018-12-15T09:16:47.157Z,5.90
2018-12-15T09:19:14.611Z,11.75
2018-12-15T09:21:42.100Z,7.10
2018-12-15T09:24:09.599Z,5.40
2018-12-15T09:26:37.152Z,5.47
2018-12-15T09:29:04.612Z,4.65
2018-12-15T09:31:32.089Z,4.92
2018-12-15T09:33:59.545Z,6.10
2018-12-15T09:36:27.044Z,4.83
2018-12-15T09:38:54.497Z,5.78
2018-12-15T09:41:21.973Z,6.17
2018-12-15T09:43:49.453Z,6.05
2018-12-15T09:46:16.933Z,4.45
2018-12-15T09:48:44.389Z,4.42
2018-12-15T09:51:11.913Z,4.53
2018-12-15T09:53:39.400Z,4.45
2018-12-15T09:56:07.213Z,6.42
2018-12-15T09:58:34.657Z,4.35
2018-12-15T10:01:02.126Z,4.25
2018-12-15T10:03:29.565Z,4.37
2018-12-15T10:05:57.040Z,4.75
2018-12-15T10:08:24.494Z,5.28
2018-12-15T10:10:51.969Z,4.90
2018-12-15T10:13:19.430Z,4.75
2018-12-15T10:15:46.896Z,4.87
2018-12-15T10:18:14.353Z,5.17
2018-12-15T10:20:41.826Z,4.47
2018-12-15T10:23:09.285Z,6.08
2018-12-15T10:25:36.756Z,5.08
2018-12-15T10:28:04.219Z,5.95
2018-12-15T10:30:37.473Z,3.92
2018-12-15T10:33:05.070Z,2.55
2018-12-15T10:35:32.666Z,4.25
2018-12-15T10:38:00.100Z,3.98
2018-12-15T10:40:27.595Z,4.85
2018-12-15T10:42:55.048Z,3.75
2018-12-15T10:45:22.509Z,4.55
2018-12-15T10:47:49.980Z,4.22
2018-12-15T10:50:17.436Z,3.83
2018-12-15T10:52:44.907Z,3.85
2018-12-15T10:55:12.364Z,4.15
2018-12-15T10:57:39.844Z,4.60
2018-12-15T11:00:10.394Z,4.00
2018-12-15T11:02:37.849Z,4.53
2018-12-15T11:05:05.546Z,4.10
2018-12-15T11:07:34.283Z,4.55
2018-12-15T11:10:01.892Z,5.80
2018-12-15T11:12:29.400Z,4.53
2018-12-15T11:14:56.857Z,4.45
2018-12-15T11:17:24.326Z,3.95
2018-12-15T11:19:51.775Z,4.28
2018-12-15T11:22:19.228Z,3.30
2018-12-15T11:24:46.688Z,4.15
2018-12-15T11:27:14.144Z,4.70
2018-12-15T11:29:41.818Z,4.28
2018-12-15T11:32:09.284Z,4.20
2018-12-15T11:34:36.730Z,4.37
2018-12-15T11:37:04.260Z,4.45
2018-12-15T11:39:31.708Z,4.72
2018-12-15T11:41:59.175Z,4.80
2018-12-15T11:44:26.652Z,4.42
2018-12-15T11:46:54.117Z,4.50
2018-12-15T11:49:21.564Z,4.78
2018-12-15T11:51:49.023Z,3.37
2018-12-15T11:54:16.477Z,3.92
2018-12-15T11:56:43.952Z,4.62
2018-12-15T11:59:11.392Z,4.47
2018-12-15T12:01:45.303Z,3.83
2018-12-15T12:04:12.756Z,4.15
2018-12-15T12:06:40.217Z,3.62
2018-12-15T12:09:07.673Z,4.75
2018-12-15T12:11:35.133Z,5.55
2018-12-15T12:14:02.589Z,4.50
2018-12-15T12:16:30.064Z,5.20
2018-12-15T12:18:57.522Z,4.47
2018-12-15T12:21:24.969Z,4.55
2018-12-15T12:23:52.436Z,4.42
2018-12-15T12:26:19.880Z,5.35
2018-12-15T12:28:47.349Z,6.05
2018-12-15T12:31:14.792Z,5.03
2018-12-15T12:33:42.255Z,6.03
2018-12-15T12:36:09.819Z,5.62
2018-12-15T12:38:37.285Z,6.40
2018-12-15T12:41:04.724Z,5.95
2018-12-15T12:43:32.188Z,5.70
2018-12-15T12:45:59.638Z,5.87
2018-12-15T12:48:27.109Z,5.90
2018-12-15T12:50:54.552Z,6.42
2018-12-15T12:53:22.026Z,6.37
2018-12-15T12:55:49.468Z,5.92
2018-12-15T12:58:17.465Z,7.03
2018-12-15T13:00:44.927Z,5.22
2018-12-15T13:03:12.385Z,6.50
2018-12-15T13:05:39.837Z,6.67
2018-12-15T13:08:07.556Z,5.00
2018-12-15T13:10:35.005Z,5.85
2018-12-15T13:13:02.476Z,6.47
2018-12-15T13:15:29.936Z,6.70
2018-12-15T13:17:58.389Z,5.30
2018-12-15T13:20:25.844Z,5.92
2018-12-15T13:22:53.308Z,6.05
2018-12-15T13:25:20.760Z,5.87
2018-12-15T13:27:48.225Z,4.85
2018-12-15T13:30:15.682Z,5.35
2018-12-15T13:32:43.138Z,6.22
2018-12-15T13:35:10.599Z,6.08
2018-12-15T13:37:38.130Z,7.67
2018-12-15T13:40:06.425Z,6.65
2018-12-15T13:42:33.961Z,8.18
2018-12-15T13:45:01.432Z,5.75
2018-12-15T13:47:28.888Z,6.60
2018-12-15T13:49:56.365Z,6.47
2018-12-15T13:52:23.821Z,7.53
2018-12-15T13:54:51.296Z,6.72
2018-12-15T13:57:18.760Z,6.85
2018-12-15T13:59:46.222Z,7.45
2018-12-15T14:02:13.689Z,6.20
2018-12-15T14:04:41.149Z,6.47
2018-12-15T14:07:08.601Z,7.78
2018-12-15T14:09:36.069Z,6.83
2018-12-15T14:12:03.525Z,5.05
2018-12-15T14:14:30.995Z,6.12
2018-12-15T14:16:58.456Z,5.62
2018-12-15T14:19:25.937Z,6.47
2018-12-15T14:21:55.357Z,6.72
2018-12-15T14:24:22.833Z,6.70
2018-12-15T14:26:50.357Z,6.03
2018-12-15T14:29:17.829Z,5.67
2018-12-15T14:31:45.309Z,7.85
2018-12-15T14:34:12.772Z,6.62
2018-12-15T14:36:40.225Z,7.60
2018-12-15T14:39:07.684Z,6.30
2018-12-15T14:41:36.033Z,5.87
2018-12-15T14:44:04.048Z,6.90
2018-12-15T14:46:31.498Z,6.00
2018-12-15T14:48:59.364Z,6.25
2018-12-15T14:51:26.812Z,7.40
2018-12-15T14:53:54.282Z,6.50
2018-12-15T14:56:21.757Z,6.47
2018-12-15T14:58:49.224Z,7.80
2018-12-15T15:01:16.785Z,6.97
2018-12-15T15:03:44.265Z,6.62
2018-12-15T15:06:11.729Z,6.37
2018-12-15T15:08:39.208Z,7.35
2018-12-15T15:11:06.665Z,7.85
2018-12-15T15:13:34.697Z,7.97
2018-12-15T15:16:02.466Z,7.33
2018-12-15T15:18:29.920Z,7.15
2018-12-15T15:20:57.392Z,6.92
2018-12-15T15:23:24.835Z,7.15
2018-12-15T15:25:52.308Z,8.70
2018-12-15T15:28:19.764Z,7.33
2018-12-15T15:30:47.241Z,7.97
2018-12-15T15:33:14.701Z,7.97
2018-12-15T15:35:42.169Z,8.43
2018-12-15T15:38:09.620Z,9.05
2018-12-15T15:40:39.018Z,7.17
2018-12-15T15:43:06.480Z,8.20
2018-12-15T15:45:33.968Z,7.35
2018-12-15T15:48:01.432Z,7.85
2018-12-15T15:50:28.902Z,7.47
2018-12-15T15:52:56.360Z,8.50
2018-12-15T15:55:23.824Z,7.72
2018-12-15T15:57:51.285Z,8.25
2018-12-15T16:00:18.791Z,9.00
2018-12-15T16:02:46.240Z,8.80
2018-12-15T16:05:13.707Z,8.13
2018-12-15T16:07:41.152Z,9.18
2018-12-15T16:10:09.548Z,9.13
2018-12-15T16:12:37.005Z,9.63
2018-12-15T16:15:06.116Z,7.42
2018-12-15T16:17:33.569Z,8.35
2018-12-15T16:20:01.038Z,9.98
2018-12-15T16:22:28.489Z,8.40
2018-12-15T16:24:56.014Z,8.30
2018-12-15T16:27:23.914Z,8.60
2018-12-15T16:29:51.383Z,8.75
2018-12-15T16:32:18.912Z,8.88
2018-12-15T16:34:46.377Z,8.75
2018-12-15T16:37:13.832Z,6.90
2018-12-15T16:39:41.318Z,8.28
2018-12-15T16:42:08.772Z,8.33
2018-12-15T16:44:36.249Z,7.80
2018-12-15T16:47:03.767Z,8.00
2018-12-15T16:49:31.233Z,7.10
2018-12-15T16:51:58.696Z,7.15
2018-12-15T16:54:26.163Z,8.90
2018-12-15T16:56:53.654Z,6.60
2018-12-15T16:59:21.115Z,7.42
2018-12-15T17:01:48.581Z,8.48
2018-12-15T17:04:16.044Z,8.15
2018-12-15T17:06:43.513Z,8.20
2018-12-15T17:09:12.456Z,8.60
2018-12-15T17:11:39.913Z,7.50
2018-12-15T17:14:07.380Z,10.63
2018-12-15T17:16:34.844Z,8.75
2018-12-15T17:19:05.429Z,9.65
2018-12-15T17:21:32.905Z,8.55
2018-12-15T17:24:00.361Z,7.45
2018-12-15T17:26:27.846Z,11.53
2018-12-15T17:28:55.296Z,8.20
2018-12-15T17:31:22.780Z,9.65
2018-12-15T17:33:50.258Z,8.03
2018-12-15T17:36:17.716Z,8.20
2018-12-15T17:38:52.817Z,8.55
2018-12-15T17:41:20.285Z,6.75
2018-12-15T17:43:47.745Z,7.97
2018-12-15T17:46:15.211Z,9.03
2018-12-15T17:48:42.668Z,8.85
2018-12-15T17:51:10.201Z,9.40
2018-12-15T17:53:37.657Z,6.80
2018-12-15T17:56:05.131Z,9.18
2018-12-15T17:58:32.568Z,7.70
2018-12-15T18:01:00.049Z,8.83
2018-12-15T18:03:27.508Z,9.35
2018-12-15T18:05:54.984Z,7.03
2018-12-15T18:08:22.445Z,8.80
2018-12-15T18:10:49.917Z,7.72
2018-12-15T18:13:17.374Z,7.10
2018-12-15T18:15:44.858Z,6.42
2018-12-15T18:18:12.312Z,6.53
2018-12-15T18:20:39.783Z,8.75
2018-12-15T18:23:07.313Z,6.10
2018-12-15T18:25:34.768Z,8.45
2018-12-15T18:28:02.244Z,7.37
2018-12-15T18:30:29.701Z,7.83
2018-12-15T18:32:57.172Z,7.05
2018-12-15T18:35:24.794Z,6.62
2018-12-15T18:37:52.280Z,7.90
2018-12-15T18:40:19.744Z,6.53
2018-12-15T18:42:47.208Z,6.80
2018-12-15T18:45:14.710Z,7.58
2018-12-15T18:47:42.182Z,7.30
2018-12-15T18:50:09.704Z,6.55
2018-12-15T18:52:37.174Z,8.40
2018-12-15T18:55:04.762Z,6.62
2018-12-15T18:57:32.240Z,7.12
2018-12-15T18:59:59.701Z,6.42
2018-12-15T19:02:27.176Z,7.05
2018-12-15T19:04:54.649Z,6.58
2018-12-15T19:07:22.118Z,7.22
2018-12-15T19:09:49.574Z,8.03
2018-12-15T19:12:17.101Z,6.30
2018-12-15T19:14:44.565Z,6.75
2018-12-15T19:17:12.620Z,6.75
2018-12-15T19:19:40.073Z,5.58
2018-12-15T19:22:07.549Z,5.72
2018-12-15T19:24:35.004Z,7.20
2018-12-15T19:27:02.484Z,6.55
2018-12-15T19:29:29.961Z,6.75
2018-12-15T19:31:57.430Z,6.80
2018-12-15T19:34:24.889Z,5.53
2018-12-15T19:36:52.361Z,7.25
2018-12-15T19:39:19.825Z,6.30
2018-12-15T19:41:47.309Z,6.87
2018-12-15T19:44:14.778Z,6.08
2018-12-15T19:46:42.253Z,6.80
2018-12-15T19:49:09.708Z,7.40
2018-12-15T19:51:38.451Z,6.50
2018-12-15T19:54:06.113Z,7.42
2018-12-15T19:56:35.057Z,6.50
2018-12-15T19:59:03.126Z,6.90
2018-12-15T20:01:30.579Z,7.40
2018-12-15T20:03:58.065Z,8.98
2018-12-15T20:06:27.021Z,6.53
2018-12-15T20:08:54.501Z,7.70
2018-12-15T20:11:21.970Z,7.72
2018-12-15T20:13:49.441Z,7.35
2018-12-15T20:16:17.034Z,8.40
2018-12-15T20:18:44.568Z,6.95
2018-12-15T20:21:12.465Z,7.70
2018-12-15T20:23:39.928Z,6.10
2018-12-15T20:26:07.393Z,6.35
2018-12-15T20:28:34.869Z,7.42
2018-12-15T20:31:02.335Z,5.78
2018-12-15T20:33:29.812Z,6.62
2018-12-15T20:35:57.277Z,6.62
2018-12-15T20:38:24.821Z,8.40
2018-12-15T20:40:52.325Z,7.80
2018-12-15T20:43:19.820Z,6.92
2018-12-15T20:45:47.364Z,8.18
2018-12-15T20:48:14.937Z,6.17
2018-12-15T20:50:42.399Z,6.87
2018-12-15T20:53:09.868Z,9.03
2018-12-15T20:55:37.389Z,6.70
2018-12-15T20:58:04.875Z,8.50
2018-12-15T21:00:32.343Z,7.10
2018-12-15T21:02:59.832Z,7.37
2018-12-15T21:05:27.308Z,9.10
2018-12-15T21:07:54.782Z,9.80
2018-12-15T21:10:22.264Z,8.95
2018-12-15T21:12:49.763Z,5.95
2018-12-15T21:15:19.208Z,8.58
2018-12-15T21:17:46.672Z,9.25
2018-12-15T21:20:15.490Z,7.83
2018-12-15T21:22:43.173Z,8.40
2018-12-15T21:25:10.645Z,7.35
2018-12-15T21:27:38.124Z,10.05
2018-12-15T21:30:07.970Z,7.15
2018-12-15T21:32:35.443Z,10.53
2018-12-15T21:35:02.927Z,9.25
2018-12-15T21:37:30.392Z,7.83
2018-12-15T21:39:57.860Z,9.18
2018-12-15T21:42:25.327Z,10.35
2018-12-15T21:44:52.815Z,9.48
2018-12-15T21:47:20.269Z,8.60
2018-12-15T21:49:47.861Z,7.28
2018-12-15T21:52:15.321Z,8.05
2018-12-15T21:54:42.804Z,8.93
2018-12-15T21:57:10.261Z,9.68
2018-12-15T21:59:37.734Z,8.43
2018-12-15T22:02:05.222Z,10.38
2018-12-15T22:04:32.701Z,7.70
2018-12-15T22:07:00.165Z,10.50
2018-12-15T22:09:27.646Z,9.98
2018-12-15T22:11:55.150Z,8.68
2018-12-15T22:14:22.620Z,9.35
2018-12-15T22:16:51.002Z,7.78
2018-12-15T22:19:18.489Z,9.45
2018-12-15T22:21:45.945Z,9.48
2018-12-15T22:24:13.431Z,11.30
2018-12-15T22:26:40.887Z,8.25
2018-12-15T22:29:08.354Z,8.95
2018-12-15T22:31:35.817Z,9.10
2018-12-15T22:34:03.301Z,8.90
2018-12-15T22:36:30.756Z,9.88
2018-12-15T22:38:58.233Z,9.15
2018-12-15T22:41:25.702Z,10.15
2018-12-15T22:43:55.087Z,8.80
2018-12-15T22:46:22.548Z,8.00
2018-12-15T22:48:50.041Z,8.80
2018-12-15T22:51:17.505Z,8.35
2018-12-15T22:53:44.972Z,9.00
2018-12-15T22:56:12.454Z,8.45
2018-12-15T22:58:40.648Z,8.95
2018-12-15T23:01:10.847Z,10.23
2018-12-15T23:03:55.636Z,7.87
2018-12-15T23:06:23.092Z,9.33
2018-12-15T23:08:50.577Z,8.60
2018-12-15T23:11:18.043Z,10.78
2018-12-15T23:13:45.500Z,9.33
2018-12-15T23:16:14.441Z,8.38
2018-12-15T23:18:41.914Z,8.80
2018-12-15T23:21:09.381Z,8.83
2018-12-15T23:23:36.845Z,8.45
2018-12-15T23:26:04.321Z,8.50
2018-12-15T23:28:31.783Z,8.73
2018-12-15T23:31:04.354Z,8.50
2018-12-15T23:33:31.809Z,10.03
2018-12-15T23:35:59.289Z,8.28
2018-12-15T23:38:26.748Z,7.15
2018-12-15T23:40:54.223Z,10.08
2018-12-15T23:43:21.674Z,8.63
2018-12-15T23:45:49.146Z,8.45
2018-12-15T23:48:16.624Z,7.70
2018-12-15T23:50:44.096Z,9.55
2018-12-15T23:53:11.549Z,7.85
2018-12-15T23:55:39.032Z,8.80
2018-12-15T23:58:06.485Z,9.70
